Indianapolis, Indiana
Traffic Map
Current Weather Conditions
Indianapolis, Indiana
Few Clouds
Few Clouds
48°
Feels Like: 44°
Wind Chill: 44° Ceiling: Unl
Heat Index: 48° Visibility: 10mi
Dew Point: 30° Wind: 9mph
Humidity: 50% Direction: 200° (SSW)
Pressure: 29.95in Gusts: 0mph
Raw Report DataKIND 310454Z 20008KT 10SM FEW250 09/M01 A2995 RMK AO2 SLP141 T00891011 401610022
Traffic Incident Summary
Active as of:
Severity:
Category:
InformationThere was an issue retrieving the traffic information for this location. Please try a different location or try again shortly.
Advertisements
Track Severe Weather on mobile